Triathlon du Chemin des Dames 2019

Epreuve sélectionnée:


M - Résultats Scratch

Filtre:

Partants Général Top 5



Recherche:

N° dossard
Nom
Club
M - Classement arrivée
Clt Athlète Nat. Club Temps Sexe Cat Nat #1 Velo #2 CaP Tps réel
1 223 FERNANDES Marc VILLENEUVE D ASCQ TRIATHLON 02:04:04 M (1e) Senior (1e) 00:22:21 (7e) 00:00:48 (13e) 01:06:01 (2e) 00:00:37 (25e) 00:34:19 (1e) 02:04:04 (1e) Partagez votre performance
2 214 DELECROIX Gaetan VILLENEUVE D ASCQ TRIATHLON 02:07:10 M (2e) Senior (2e) 00:23:11 (13e) 00:00:39 (2e) 01:05:49 (1e) 00:00:40 (39e) 00:36:53 (7e) 02:07:10 (2e) Partagez votre performance
3 248 BOURLET Mathieu BEAUVAIS TRIATHLON 02:09:55 M (3e) Senior (3e) 00:22:50 (10e) 00:01:05 (59e) 01:07:00 (3e) 00:00:42 (48e) 00:38:20 (16e) 02:09:55 (3e) Partagez votre performance
4 88 GALLET Mathieu AUTUN TRIATHLON 02:10:52 M (4e) Senior (4e) 00:21:07 (1e) 00:00:46 (9e) 01:14:07 (63e) 00:00:31 (7e) 00:34:22 (2e) 02:10:52 (4e) Partagez votre performance
5 210 SENOTIER Kevin VILLENEUVE D ASCQ TRIATHLON 02:11:57 M (5e) Senior (5e) 00:21:24 (2e) 00:00:43 (4e) 01:11:41 (28e) 00:00:34 (14e) 00:37:37 (10e) 02:11:57 (5e) Partagez votre performance
6 298 GITEAU Clément LILLE TRIATHLON 02:12:12 M (6e) Senior (6e) 00:22:59 (12e) 00:00:44 (6e) 01:10:57 (21e) 00:00:34 (16e) 00:36:59 (8e) 02:12:12 (6e) Partagez votre performance
7 408 MICHE Sylvain REIMS TRIATHLON 02:14:16 M (7e) Master (1e) 00:24:41 (21e) 00:01:22 (107e) 01:09:57 (12e) 00:00:34 (13e) 00:37:45 (11e) 02:14:16 (7e) Partagez votre performance
8 215 OZEEL Baptiste VILLENEUVE D ASCQ TRIATHLON 02:14:18 M (8e) Senior (7e) 00:25:08 (29e) 00:00:57 (29e) 01:10:55 (20e) 00:00:30 (4e) 00:36:49 (6e) 02:14:18 (8e) Partagez votre performance
9 412 PRIGENT Anthony S.O. HOUILLES TRIATHLON 02:14:19 M (9e) Senior (8e) 00:25:49 (42e) 00:01:04 (53e) 01:10:28 (13e) 00:00:43 (55e) 00:36:18 (4e) 02:14:19 (9e) Partagez votre performance
10 267 VERRIER Benoit FF TRI - Licence indiv. 02:14:42 M (10e) Senior (9e) 00:26:54 (80e) 00:01:44 (186e) 01:08:40 (9e) 00:00:44 (58e) 00:36:43 (5e) 02:14:42 (10e) Partagez votre performance
11 168 VERRIER Stephane TRIATHLON CLUB TORCY 02:15:25 M (11e) Master (2e) 00:21:42 (3e) 00:00:54 (23e) 01:11:55 (32e) 00:00:35 (18e) 00:40:22 (36e) 02:15:25 (11e) Partagez votre performance
12 499 MORY Thomas WASQUEHAL TRIATHLON 02:15:38 M (12e) Senior (10e) 00:21:58 (4e) 00:01:20 (101e) 01:11:09 (23e) 00:01:02 (206e) 00:40:10 (35e) 02:15:38 (12e) Partagez votre performance
13 136 DÉSAUTELS Christophe EPERNAY TRIATHLON PAYS DE CHAMPAGNE 02:16:12 M (13e) Senior (11e) 00:25:16 (31e) 00:01:01 (41e) 01:10:44 (17e) 00:00:58 (175e) 00:38:16 (15e) 02:16:12 (13e) Partagez votre performance
14 123 FOLLET Jérémy EPERNAY TRIATHLON PAYS DE CHAMPAGNE 02:16:23 M (14e) Senior (12e) 00:26:27 (71e) 00:00:43 (5e) 01:10:34 (15e) 00:00:30 (2e) 00:38:12 (14e) 02:16:23 (14e) Partagez votre performance
15 316 THIEFFRY Adrien LILLE TRIATHLON 02:16:38 M (15e) Senior (13e) 00:22:00 (5e) 00:01:10 (70e) 01:16:19 (110e) 00:00:55 (148e) 00:36:15 (3e) 02:16:38 (15e) Partagez votre performance
16 247 DEWANCKELE Matthieu BEAUVAIS TRIATHLON 02:17:06 M (16e) Master (3e) 00:22:49 (9e) 00:01:03 (49e) 01:13:52 (60e) 00:00:50 (114e) 00:38:34 (18e) 02:17:06 (16e) Partagez votre performance
17 101 CONGIUSTI Christophe EPERNAY TRIATHLON PAYS DE CHAMPAGNE 02:17:34 M (17e) Master (4e) 00:27:49 (122e) 00:01:02 (45e) 01:08:30 (8e) 00:01:08 (253e) 00:39:06 (23e) 02:17:34 (17e) Partagez votre performance
18 217 DRUARD Valentin VILLENEUVE D ASCQ TRIATHLON 02:18:02 M (18e) Senior (14e) 00:24:54 (25e) 00:00:44 (7e) 01:11:11 (24e) 00:00:42 (46e) 00:40:33 (37e) 02:18:02 (18e) Partagez votre performance
19 389 LANCIEN Olivier PASTEL TRIATHLON SAINT QUENTIN 02:18:38 M (19e) Senior (15e) 00:27:22 (102e) 00:01:50 (209e) 01:08:03 (6e) 00:00:33 (11e) 00:40:52 (40e) 02:18:38 (19e) Partagez votre performance
20 427 MILAN François SC ABBEVILLE TRIATHLON NATATION 02:18:39 M (20e) Senior (16e) 00:25:50 (45e) 00:01:02 (44e) 01:11:06 (22e) 00:00:49 (110e) 00:39:54 (32e) 02:18:39 (20e) Partagez votre performance
21 398 KOLB Romain REIMS TRIATHLON 02:18:50 M (21e) Senior (17e) 00:24:42 (22e) 00:01:07 (63e) 01:13:34 (51e) 00:00:54 (139e) 00:38:36 (19e) 02:18:50 (21e) Partagez votre performance
22 194 HIRAULT Jules VILLENEUVE D ASCQ TRIATHLON 02:18:53 M (22e) Senior (18e) 00:23:26 (15e) 00:01:11 (76e) 01:15:10 (88e) 00:00:37 (26e) 00:38:30 (17e) 02:18:53 (22e) Partagez votre performance
23 158 ZUTTER Christopher TRIATHLON CLUB TORCY 02:19:21 M (23e) Senior (19e) 00:22:23 (8e) 00:00:54 (24e) 01:13:38 (52e) 00:00:42 (49e) 00:41:46 (50e) 02:19:21 (23e) Partagez votre performance
24 400 MERTÈS Romain REIMS TRIATHLON 02:19:30 M (24e) Senior (20e) 00:27:17 (97e) 00:00:58 (33e) 01:09:32 (11e) 00:00:57 (171e) 00:40:46 (39e) 02:19:30 (24e) Partagez votre performance
25 406 LEMARCHAND Mathieu REIMS TRIATHLON 02:19:31 M (25e) Senior (21e) 00:26:01 (53e) 00:01:15 (86e) 01:12:14 (36e) 00:00:53 (138e) 00:39:09 (24e) 02:19:31 (25e) Partagez votre performance
26 295 LELOUP Alexandre LES TRITONS MELDOIS 02:19:36 M (26e) Senior (22e) 00:26:59 (84e) 00:01:36 (150e) 01:10:48 (18e) 00:00:43 (54e) 00:39:32 (31e) 02:19:36 (26e) Partagez votre performance
27 422 ORIBES Jean christophe S.O. HOUILLES TRIATHLON 02:19:39 M (27e) Master (5e) 00:27:39 (116e) 00:01:36 (148e) 01:11:47 (30e) 00:00:34 (15e) 00:38:05 (13e) 02:19:39 (27e) Partagez votre performance
28 233 BLIN Sebastien VILLENEUVE D ASCQ TRIATHLON 02:20:19 M (28e) Master (6e) 00:24:09 (17e) 00:00:47 (10e) 01:14:39 (75e) 00:00:43 (57e) 00:40:03 (33e) 02:20:19 (28e) Partagez votre performance
29 403 DUPONT-GAUDIN Victor REIMS TRIATHLON 02:20:40 M (29e) Senior (23e) 00:29:20 (191e) 00:01:58 (241e) 01:10:44 (16e) 00:00:45 (70e) 00:37:55 (12e) 02:20:40 (29e) Partagez votre performance
30 391 DESMAREST Christophe POIX TRIATHLON 02:20:41 M (30e) Master (7e) 00:28:14 (142e) 00:01:47 (195e) 01:10:33 (14e) 00:00:42 (51e) 00:39:27 (29e) 02:20:41 (30e) Partagez votre performance
31 244 DAVID Jeremy BEAUVAIS TRIATHLON 02:21:08 M (31e) Senior (24e) 00:27:26 (105e) 00:01:06 (62e) 01:11:15 (25e) 00:01:19 (347e) 00:40:05 (34e) 02:21:08 (31e) Partagez votre performance
32 510 BOURLY Fabien 02:21:09 M (32e) Senior (25e) 00:27:18 (100e) 00:01:35 (145e) 01:07:37 (4e) 00:01:08 (252e) 00:43:32 (99e) 02:21:09 (32e) Partagez votre performance
33 121 JACQUES David EPERNAY TRIATHLON PAYS DE CHAMPAGNE 02:21:24 M (33e) Master (8e) 00:26:31 (72e) 00:01:22 (106e) 01:13:46 (56e) 00:00:39 (31e) 00:39:09 (25e) 02:21:24 (33e) Partagez votre performance
34 319 DELEU Martin LILLE TRIATHLON 02:21:27 M (34e) Senior (26e) 00:25:34 (39e) 00:01:08 (64e) 01:15:03 (83e) 00:00:52 (125e) 00:38:53 (22e) 02:21:27 (34e) Partagez votre performance
35 242 SAUGRAIN Cyril ATHLETIC CLUB MARCQUOIS 02:21:33 M (35e) Master (9e) 00:28:07 (137e) 00:01:32 (135e) 01:07:45 (5e) 00:00:46 (77e) 00:43:26 (95e) 02:21:33 (35e) Partagez votre performance
36 593 OCHOA Piero 02:21:33 M (36e) Senior (27e) 00:28:17 (143e) 00:01:59 (257e) 01:08:24 (7e) 00:00:44 (61e) 00:42:11 (61e) 02:21:33 (36e) Partagez votre performance
37 336 LE MOUEL Dimitri 02:21:57 M (37e) Senior (28e) 00:27:35 (111e) 00:02:23 (337e) 01:08:46 (10e) 00:00:49 (107e) 00:42:25 (68e) 02:21:57 (37e) Partagez votre performance
38 373 CHAUVET Samuel PASTEL TRIATHLON SAINT QUENTIN 02:21:57 M (38e) Senior (29e) 00:29:40 (213e) 00:01:18 (96e) 01:13:05 (46e) 00:00:32 (8e) 00:37:24 (9e) 02:21:57 (38e) Partagez votre performance
39 313 CUVELIER Arnaud LILLE TRIATHLON 02:22:05 M (39e) Master (10e) 00:25:29 (35e) 00:01:50 (212e) 01:15:25 (91e) 00:00:39 (36e) 00:38:43 (20e) 02:22:05 (39e) Partagez votre performance
40 198 THOMAS Etienne TRIATHLON CLUB TORCY 02:22:05 M (40e) Senior (30e) 00:24:47 (23e) 00:02:07 (295e) 01:11:48 (31e) 00:01:10 (271e) 00:42:15 (62e) 02:22:05 (40e) Partagez votre performance
41 345 LEROUX Romain 02:22:12 M (41e) Senior (31e) 00:23:43 (16e) 00:01:03 (52e) 01:15:56 (100e) 00:00:55 (151e) 00:40:36 (38e) 02:22:12 (41e) Partagez votre performance
42 413 ZEPPARELLI Thierry S.O. HOUILLES TRIATHLON 02:22:29 M (42e) Master (11e) 00:26:44 (77e) 00:00:52 (19e) 01:14:38 (72e) 00:00:52 (127e) 00:39:24 (27e) 02:22:29 (42e) Partagez votre performance
43 317 GENITEAU Vincent LILLE TRIATHLON 02:22:29 M (43e) Senior (32e) 00:25:58 (50e) 00:01:38 (160e) 01:14:42 (77e) 00:01:00 (194e) 00:39:12 (26e) 02:22:29 (43e) Partagez votre performance
44 364 LEBRUN Xavier NOGENT SOLIDARITÉ TRIATHLON 02:22:33 M (44e) Master (12e) 00:25:17 (32e) 00:01:51 (215e) 01:12:21 (38e) 00:01:10 (272e) 00:41:58 (55e) 02:22:33 (44e) Partagez votre performance
45 157 DEWAELE Thomas TRIATHLON CLUB TORCY 02:22:44 M (45e) Master (13e) 00:25:52 (46e) 00:01:13 (83e) 01:12:00 (33e) 00:01:07 (247e) 00:42:33 (72e) 02:22:44 (45e) Partagez votre performance
46 417 LE RICHE Jean jacques S.O. HOUILLES TRIATHLON 02:22:45 M (46e) Master (14e) 00:25:49 (43e) 00:01:09 (67e) 01:12:22 (39e) 00:00:46 (82e) 00:42:41 (75e) 02:22:45 (46e) Partagez votre performance
47 307 FACKEURE Rémi LILLE TRIATHLON 02:23:24 M (47e) Senior (33e) 00:26:04 (54e) 00:00:53 (20e) 01:13:14 (47e) 00:00:58 (173e) 00:42:18 (65e) 02:23:24 (47e) Partagez votre performance
48 106 DEMANGE Rodolphe EPERNAY TRIATHLON PAYS DE CHAMPAGNE 02:23:41 M (48e) Master (15e)